createdAt,value
2022-08-12T00:00:48.972Z,56.07
2022-08-12T00:02:03.610Z,56.07
2022-08-12T00:02:49.997Z,55.27
2022-08-12T00:03:48.923Z,55.91
2022-08-12T00:04:49.925Z,56.40
2022-08-12T00:06:00.452Z,56.24
2022-08-12T00:06:49.932Z,56.07
2022-08-12T00:07:48.895Z,55.91
2022-08-12T00:08:48.883Z,55.75
2022-08-12T00:09:49.371Z,56.24
2022-08-12T00:10:48.870Z,57.69
2022-08-12T00:11:49.090Z,55.75
2022-08-12T00:12:49.084Z,54.95
2022-08-12T00:13:49.066Z,55.43
2022-08-12T00:14:49.097Z,55.11
2022-08-12T00:15:49.004Z,55.91
2022-08-12T00:16:49.112Z,54.95
2022-08-12T00:17:49.019Z,54.95
2022-08-12T00:18:49.024Z,55.75
2022-08-12T00:19:48.966Z,55.27
2022-08-12T00:20:49.035Z,55.91
2022-08-12T00:21:48.802Z,55.27
2022-08-12T00:22:58.804Z,54.79
2022-08-12T00:23:49.758Z,54.30
2022-08-12T00:24:48.771Z,55.11
2022-08-12T00:26:18.992Z,54.79
2022-08-12T00:26:49.757Z,54.95
2022-08-12T00:27:48.729Z,54.62
2022-08-12T00:28:48.715Z,54.79
2022-08-12T00:29:49.706Z,55.43
2022-08-12T00:30:48.699Z,54.79
2022-08-12T00:31:48.728Z,54.79
2022-08-12T00:32:54.919Z,54.95
2022-08-12T00:33:52.483Z,55.27
2022-08-12T00:34:49.485Z,55.27
2022-08-12T00:35:48.646Z,55.27
2022-08-12T00:36:50.151Z,54.95
2022-08-12T00:37:48.661Z,55.11
2022-08-12T00:38:48.642Z,55.59
2022-08-12T00:39:48.733Z,55.27
2022-08-12T00:40:48.603Z,54.79
2022-08-12T00:41:48.641Z,54.95
2022-08-12T00:42:48.591Z,54.46
2022-08-12T00:43:48.586Z,55.43
2022-08-12T00:44:48.586Z,55.91
2022-08-12T00:45:48.575Z,55.75
2022-08-12T00:47:25.024Z,54.46
2022-08-12T00:47:49.553Z,57.69
2022-08-12T00:48:48.548Z,56.24
2022-08-12T00:49:50.368Z,56.24
2022-08-12T00:50:48.531Z,55.11
2022-08-12T00:51:48.523Z,54.62
2022-08-12T00:52:48.540Z,53.82
2022-08-12T00:53:48.496Z,54.14
2022-08-12T00:54:48.493Z,55.27
2022-08-12T00:55:48.489Z,54.95
2022-08-12T00:56:48.466Z,54.30
2022-08-12T00:57:48.529Z,54.62
2022-08-12T00:58:48.458Z,56.72
2022-08-12T00:59:48.450Z,60.75
2022-08-12T01:00:48.454Z,53.98
2022-08-12T01:02:00.974Z,54.30
2022-08-12T01:02:49.457Z,54.14
2022-08-12T01:03:48.420Z,55.91
2022-08-12T01:04:48.403Z,56.07
2022-08-12T01:05:48.409Z,56.56
2022-08-12T01:06:50.918Z,56.24
2022-08-12T01:07:49.409Z,57.04
2022-08-12T01:08:48.365Z,57.36
2022-08-12T01:09:48.368Z,56.24
2022-08-12T01:10:48.357Z,56.40
2022-08-12T01:11:48.341Z,55.91
2022-08-12T01:12:48.359Z,57.04
2022-08-12T01:13:48.332Z,57.04
2022-08-12T01:14:48.322Z,56.07
2022-08-12T01:15:48.316Z,57.20
2022-08-12T01:16:48.302Z,56.24
2022-08-12T01:17:48.321Z,55.75
2022-08-12T01:18:48.287Z,57.04
2022-08-12T01:19:49.270Z,55.91
2022-08-12T01:20:48.276Z,56.56
2022-08-12T01:21:48.285Z,56.56
2022-08-12T01:22:48.279Z,56.56
2022-08-12T01:23:48.251Z,56.72
2022-08-12T01:24:48.252Z,57.04
2022-08-12T01:25:56.146Z,55.91
2022-08-12T01:26:49.222Z,56.24
2022-08-12T01:27:48.253Z,56.24
2022-08-12T01:28:48.206Z,57.36
2022-08-12T01:29:48.200Z,57.20
2022-08-12T01:30:48.195Z,56.72
2022-08-12T01:31:48.179Z,56.88
2022-08-12T01:32:48.543Z,56.24
2022-08-12T01:33:48.165Z,56.07
2022-08-12T01:34:48.155Z,55.75
2022-08-12T01:35:57.873Z,57.04
2022-08-12T01:36:49.134Z,58.17
2022-08-12T01:37:48.127Z,56.72
2022-08-12T01:38:48.154Z,56.07
2022-08-12T01:40:34.914Z,56.40
2022-08-12T01:40:49.222Z,56.40
2022-08-12T01:41:53.576Z,58.33
2022-08-12T01:42:49.088Z,55.75
2022-08-12T01:43:48.113Z,54.79
2022-08-12T01:44:48.075Z,55.27
2022-08-12T01:45:48.065Z,53.01
2022-08-12T01:46:48.141Z,53.66
2022-08-12T01:47:48.050Z,53.98
2022-08-12T01:48:48.062Z,54.30
2022-08-12T01:49:48.031Z,53.82
2022-08-12T01:50:48.021Z,52.69
2022-08-12T01:52:21.551Z,53.01
2022-08-12T01:52:49.000Z,53.98
2022-08-12T01:53:48.728Z,54.95
2022-08-12T01:54:47.989Z,54.46
2022-08-12T01:55:47.976Z,55.11
2022-08-12T01:56:47.963Z,57.04
2022-08-12T01:57:59.656Z,57.52
2022-08-12T01:58:48.987Z,56.72
2022-08-12T01:59:47.941Z,57.20
2022-08-12T02:00:54.960Z,56.88
2022-08-12T02:01:48.999Z,57.04
2022-08-12T02:02:47.920Z,57.20
2022-08-12T02:03:47.936Z,57.52
2022-08-12T02:04:47.896Z,57.36
2022-08-12T02:05:47.885Z,58.97
2022-08-12T02:06:47.884Z,56.40
2022-08-12T02:07:47.870Z,56.72
2022-08-12T02:08:47.897Z,57.69
2022-08-12T02:09:47.859Z,56.56
2022-08-12T02:10:49.958Z,56.72
2022-08-12T02:11:47.839Z,56.40
2022-08-12T02:12:47.870Z,55.91
2022-08-12T02:13:49.321Z,55.75
2022-08-12T02:14:47.818Z,54.30
2022-08-12T02:15:47.807Z,55.43
2022-08-12T02:16:47.801Z,56.24
2022-08-12T02:17:56.286Z,56.07
2022-08-12T02:18:48.811Z,57.20
2022-08-12T02:19:47.784Z,57.52
2022-08-12T02:20:52.462Z,56.72
2022-08-12T02:21:48.767Z,55.75
2022-08-12T02:22:47.769Z,56.88
2022-08-12T02:23:47.769Z,55.91
2022-08-12T02:24:47.729Z,54.30
2022-08-12T02:25:47.725Z,54.14
2022-08-12T02:26:47.717Z,54.30
2022-08-12T02:27:47.720Z,53.50
2022-08-12T02:28:47.724Z,54.46
2022-08-12T02:29:47.684Z,57.69
2022-08-12T02:30:47.675Z,58.49
2022-08-12T02:31:47.727Z,64.61
2022-08-12T02:32:47.694Z,69.77
2022-08-12T02:33:47.767Z,69.29
2022-08-12T02:34:47.656Z,68.80
2022-08-12T02:35:47.680Z,69.13
2022-08-12T02:36:47.648Z,69.13
2022-08-12T02:37:47.675Z,68.00
2022-08-12T02:38:47.644Z,68.80
2022-08-12T02:39:47.641Z,68.96
2022-08-12T02:40:47.585Z,68.48
2022-08-12T02:41:47.585Z,56.07
2022-08-12T02:42:47.638Z,57.52
2022-08-12T02:43:47.594Z,69.61
2022-08-12T02:44:47.571Z,69.13
2022-08-12T02:45:47.561Z,68.96
2022-08-12T02:46:47.540Z,68.64
2022-08-12T02:47:57.143Z,67.68
2022-08-12T02:48:48.550Z,68.64
2022-08-12T02:49:47.568Z,69.29
2022-08-12T02:50:47.528Z,68.32
2022-08-12T02:51:47.526Z,69.13
2022-08-12T02:52:47.490Z,68.48
2022-08-12T02:54:03.320Z,68.96
2022-08-12T02:54:48.505Z,67.35
2022-08-12T02:55:47.473Z,68.48
2022-08-12T02:56:50.770Z,54.30
2022-08-12T02:57:47.454Z,55.91
2022-08-12T02:58:47.479Z,69.61
2022-08-12T02:59:47.431Z,69.93
2022-08-12T03:00:47.530Z,69.13
2022-08-12T03:01:47.602Z,69.77
2022-08-12T03:02:47.402Z,68.96
2022-08-12T03:03:47.420Z,68.00
2022-08-12T03:04:47.393Z,68.80
2022-08-12T03:05:47.385Z,68.32
2022-08-12T03:06:47.390Z,67.68
2022-08-12T03:07:59.840Z,67.19
2022-08-12T03:08:51.832Z,69.13
2022-08-12T03:10:05.348Z,69.61
2022-08-12T03:10:48.411Z,69.61
2022-08-12T03:11:48.955Z,68.80
2022-08-12T03:12:49.318Z,65.10
2022-08-12T03:13:47.346Z,67.84
2022-08-12T03:14:47.317Z,69.45
2022-08-12T03:15:47.304Z,68.64
2022-08-12T03:16:47.284Z,68.16
2022-08-12T03:17:47.306Z,68.96
2022-08-12T03:18:48.325Z,68.16
2022-08-12T03:20:08.814Z,68.16
2022-08-12T03:20:48.257Z,68.00
2022-08-12T03:21:54.703Z,67.51
2022-08-12T03:22:48.260Z,68.16
2022-08-12T03:23:47.325Z,70.58
2022-08-12T03:24:47.225Z,69.61
2022-08-12T03:25:47.229Z,68.00
2022-08-12T03:26:47.204Z,53.82
2022-08-12T03:27:47.230Z,59.78
2022-08-12T03:28:47.320Z,69.13
2022-08-12T03:29:50.035Z,68.80
2022-08-12T03:30:47.177Z,62.04
2022-08-12T03:31:47.164Z,58.33
2022-08-12T03:32:47.406Z,60.75
2022-08-12T03:34:02.385Z,60.26
2022-08-12T03:34:48.182Z,58.17
2022-08-12T03:35:47.154Z,62.20
2022-08-12T03:36:47.167Z,63.65
2022-08-12T03:37:47.100Z,70.58
2022-08-12T03:38:47.190Z,70.58
2022-08-12T03:39:47.219Z,70.90
2022-08-12T03:40:47.111Z,70.09
2022-08-12T03:41:47.099Z,70.42
2022-08-12T03:42:47.088Z,69.93
2022-08-12T03:43:47.095Z,70.25
2022-08-12T03:44:47.135Z,70.09
2022-08-12T03:45:52.338Z,70.42
2022-08-12T03:46:48.055Z,69.77
2022-08-12T03:47:47.035Z,70.09
2022-08-12T03:48:47.032Z,68.96
2022-08-12T03:49:47.052Z,69.77
2022-08-12T03:50:47.057Z,64.61
2022-08-12T03:51:46.993Z,58.97
2022-08-12T03:52:46.979Z,59.30
2022-08-12T03:53:46.997Z,63.97
2022-08-12T03:54:47.053Z,71.70
2022-08-12T03:55:46.956Z,69.61
2022-08-12T03:56:46.938Z,68.96
2022-08-12T03:57:48.566Z,68.64
2022-08-12T03:58:46.925Z,68.64
2022-08-12T03:59:46.951Z,67.51
2022-08-12T04:00:47.010Z,68.48
2022-08-12T04:01:46.895Z,54.14
2022-08-12T04:02:47.896Z,55.43
2022-08-12T04:03:46.888Z,56.24
2022-08-12T04:04:46.910Z,61.39
2022-08-12T04:05:54.698Z,57.52
2022-08-12T04:06:47.863Z,69.61
2022-08-12T04:07:56.340Z,69.93
2022-08-12T04:08:47.847Z,69.77
2022-08-12T04:09:46.859Z,69.93
2022-08-12T04:10:46.832Z,69.61
2022-08-12T04:11:47.281Z,69.29
2022-08-12T04:12:46.813Z,70.42
2022-08-12T04:13:46.800Z,69.93
2022-08-12T04:14:46.823Z,69.93
2022-08-12T04:15:46.780Z,69.93
2022-08-12T04:16:46.776Z,70.25
2022-08-12T04:18:07.329Z,69.77
2022-08-12T04:18:47.760Z,70.25
2022-08-12T04:19:46.779Z,70.25
2022-08-12T04:20:46.740Z,72.83
2022-08-12T04:22:02.180Z,70.09
2022-08-12T04:22:47.716Z,69.93
2022-08-12T04:23:48.681Z,70.25
2022-08-12T04:24:50.530Z,71.54
2022-08-12T04:25:46.701Z,71.06
2022-08-12T04:26:46.689Z,70.09
2022-08-12T04:27:46.690Z,70.09
2022-08-12T04:28:46.685Z,69.93
2022-08-12T04:30:21.193Z,70.09
2022-08-12T04:30:47.656Z,69.45
2022-08-12T04:31:46.654Z,69.93
2022-08-12T04:32:46.813Z,69.29
2022-08-12T04:33:47.634Z,69.93
2022-08-12T04:34:46.648Z,68.80
2022-08-12T04:35:46.619Z,69.61
2022-08-12T04:36:46.611Z,69.45
2022-08-12T04:37:58.094Z,70.25
2022-08-12T04:38:47.582Z,70.58
2022-08-12T04:39:46.665Z,69.13
2022-08-12T04:40:46.573Z,69.77
2022-08-12T04:41:56.067Z,68.48
2022-08-12T04:42:47.554Z,68.96
2022-08-12T04:44:00.206Z,70.09
2022-08-12T04:44:47.594Z,70.25
2022-08-12T04:45:46.531Z,68.96
2022-08-12T04:46:46.514Z,69.93
2022-08-12T04:47:46.516Z,68.80
2022-08-12T04:48:46.514Z,68.48
2022-08-12T04:49:46.530Z,68.48
2022-08-12T04:50:46.491Z,69.29
2022-08-12T04:51:57.597Z,69.77
2022-08-12T04:52:47.467Z,68.32
2022-08-12T04:53:46.463Z,67.68
2022-08-12T04:54:46.486Z,69.29
2022-08-12T04:55:46.459Z,69.29
2022-08-12T04:57:04.887Z,69.45
2022-08-12T04:57:47.440Z,68.32
2022-08-12T04:58:50.628Z,67.84
2022-08-12T04:59:49.051Z,68.32
2022-08-12T05:00:46.423Z,67.68
2022-08-12T05:01:46.393Z,67.35
2022-08-12T05:02:46.460Z,67.84
2022-08-12T05:03:48.348Z,68.00
2022-08-12T05:04:46.427Z,67.68
2022-08-12T05:05:46.380Z,67.68
2022-08-12T05:06:46.366Z,67.19
2022-08-12T05:07:53.845Z,66.23
2022-08-12T05:08:47.332Z,67.51
2022-08-12T05:10:00.204Z,67.03
2022-08-12T05:10:47.337Z,69.29
2022-08-12T05:11:53.727Z,68.00
2022-08-12T05:12:47.383Z,66.39
2022-08-12T05:13:46.305Z,65.90
2022-08-12T05:14:46.337Z,67.84
2022-08-12T05:16:05.178Z,68.48
2022-08-12T05:16:48.278Z,57.69
2022-08-12T05:17:46.263Z,63.00
2022-08-12T05:18:46.253Z,57.04
2022-08-12T05:19:46.271Z,63.49
2022-08-12T05:20:46.234Z,57.69
2022-08-12T05:21:46.239Z,55.91
2022-08-12T05:22:46.220Z,56.56
2022-08-12T05:23:46.222Z,68.16
2022-08-12T05:24:46.234Z,57.20
2022-08-12T05:25:46.195Z,56.24
2022-08-12T05:26:46.185Z,57.20
2022-08-12T05:27:55.505Z,56.72
2022-08-12T05:28:47.165Z,61.87
2022-08-12T05:30:07.198Z,57.04
2022-08-12T05:30:47.149Z,58.49
2022-08-12T05:31:48.381Z,62.20
2022-08-12T05:32:46.137Z,60.42
2022-08-12T05:33:46.127Z,60.91
2022-08-12T05:34:46.152Z,58.33
2022-08-12T05:35:46.115Z,58.49
2022-08-12T05:36:46.106Z,64.45
2022-08-12T05:37:46.099Z,58.17
2022-08-12T05:38:46.097Z,63.65
2022-08-12T05:39:46.130Z,56.07
2022-08-12T05:40:46.068Z,64.61
2022-08-12T05:41:46.056Z,58.49
2022-08-12T05:42:46.399Z,59.62
2022-08-12T05:43:46.050Z,56.72
2022-08-12T05:44:46.067Z,61.55
2022-08-12T05:45:46.023Z,57.69
2022-08-12T05:46:46.020Z,61.87
2022-08-12T05:47:53.599Z,57.85
2022-08-12T05:48:46.999Z,65.10
2022-08-12T05:49:46.025Z,56.24
2022-08-12T05:50:45.986Z,59.14
2022-08-12T05:51:45.973Z,58.33
2022-08-12T05:52:45.964Z,64.13
2022-08-12T05:53:45.958Z,60.26
2022-08-12T05:54:56.968Z,59.30
2022-08-12T05:55:47.944Z,59.62
2022-08-12T05:56:45.933Z,58.81
2022-08-12T05:57:45.958Z,59.30
2022-08-12T05:58:45.930Z,58.01
2022-08-12T05:59:45.913Z,54.95
2022-08-12T06:00:45.940Z,55.75
2022-08-12T06:02:11.291Z,57.36
2022-08-12T06:02:46.955Z,57.69
2022-08-12T06:03:45.879Z,61.07
2022-08-12T06:04:45.881Z,56.40
2022-08-12T06:05:55.022Z,58.97
2022-08-12T06:06:46.848Z,61.55
2022-08-12T06:08:00.549Z,56.56
2022-08-12T06:08:46.833Z,63.65
2022-08-12T06:09:45.832Z,61.23
2022-08-12T06:10:45.842Z,60.10
2022-08-12T06:12:04.739Z,57.20
2022-08-12T06:12:46.790Z,58.65
2022-08-12T06:13:53.213Z,59.46
2022-08-12T06:14:46.787Z,58.81
2022-08-12T06:15:45.804Z,58.65
2022-08-12T06:16:45.771Z,57.20
2022-08-12T06:17:45.849Z,58.17
2022-08-12T06:18:45.745Z,63.33
2022-08-12T06:20:27.306Z,59.62
2022-08-12T06:20:46.775Z,57.20
2022-08-12T06:21:45.717Z,56.72
2022-08-12T06:22:45.708Z,56.88
2022-08-12T06:23:45.700Z,57.52
2022-08-12T06:24:45.704Z,54.95
2022-08-12T06:25:45.723Z,56.40
2022-08-12T06:26:45.682Z,61.07
2022-08-12T06:28:06.723Z,61.87
2022-08-12T06:28:46.659Z,58.81
2022-08-12T06:30:09.585Z,56.88
2022-08-12T06:31:08.189Z,59.94
2022-08-12T06:31:47.654Z,59.14
2022-08-12T06:33:04.354Z,59.14
2022-08-12T06:33:55.333Z,58.65
2022-08-12T06:35:25.358Z,59.62
2022-08-12T06:35:49.301Z,59.94
2022-08-12T06:36:45.598Z,59.94
2022-08-12T06:37:45.589Z,58.33
2022-08-12T06:38:46.577Z,62.68
2022-08-12T06:39:45.648Z,58.01
2022-08-12T06:40:45.597Z,59.78
2022-08-12T06:42:05.204Z,59.62
2022-08-12T06:42:46.940Z,62.04
2022-08-12T06:44:05.889Z,63.81
2022-08-12T06:44:46.537Z,61.07
2022-08-12T06:45:46.812Z,60.75
2022-08-12T06:46:45.514Z,58.65
2022-08-12T06:47:45.509Z,64.78
2022-08-12T06:48:45.497Z,61.55
2022-08-12T06:49:45.496Z,60.10
2022-08-12T06:50:45.778Z,61.23
2022-08-12T06:51:56.661Z,60.26
2022-08-12T06:52:46.584Z,60.10
2022-08-12T06:53:45.681Z,59.30
2022-08-12T06:54:45.457Z,60.75
2022-08-12T06:55:58.294Z,59.46
2022-08-12T06:57:03.454Z,61.23
2022-08-12T06:58:08.248Z,61.07
2022-08-12T06:58:46.417Z,65.10
2022-08-12T06:59:45.418Z,60.10
2022-08-12T07:00:45.461Z,61.39
2022-08-12T07:01:51.097Z,62.36
2022-08-12T07:02:46.380Z,60.75
2022-08-12T07:03:45.382Z,63.00
2022-08-12T07:04:45.380Z,59.78
2022-08-12T07:05:45.364Z,58.33
2022-08-12T07:06:45.389Z,61.71
2022-08-12T07:07:45.341Z,59.14
2022-08-12T07:08:45.350Z,58.01
2022-08-12T07:10:06.705Z,59.78
2022-08-12T07:10:46.327Z,59.30
2022-08-12T07:11:47.283Z,56.72
2022-08-12T07:12:46.325Z,59.62
2022-08-12T07:14:12.457Z,58.65
2022-08-12T07:14:48.925Z,57.52
2022-08-12T07:15:46.284Z,61.71
2022-08-12T07:16:45.301Z,59.94
2022-08-12T07:17:45.271Z,58.01
2022-08-12T07:18:45.264Z,56.88
2022-08-12T07:19:45.617Z,58.33
2022-08-12T07:20:53.345Z,53.17
2022-08-12T07:21:59.981Z,60.91
2022-08-12T07:22:46.229Z,60.59
2022-08-12T07:23:45.220Z,61.07
2022-08-12T07:24:45.212Z,59.78
2022-08-12T07:25:45.217Z,62.68
2022-08-12T07:26:45.217Z,57.85
2022-08-12T07:27:45.233Z,59.30
2022-08-12T07:28:45.174Z,56.07
2022-08-12T07:30:03.862Z,60.59
2022-08-12T07:30:46.158Z,61.07
2022-08-12T07:31:45.201Z,61.55
2022-08-12T07:32:45.149Z,61.07
2022-08-12T07:33:45.136Z,55.91
2022-08-12T07:34:45.141Z,62.84
2022-08-12T07:35:45.106Z,57.04
2022-08-12T07:36:45.138Z,54.95
2022-08-12T07:37:45.106Z,54.14
2022-08-12T07:38:45.093Z,55.91
2022-08-12T07:39:50.719Z,55.75
2022-08-12T07:40:46.078Z,61.39
2022-08-12T07:41:45.101Z,53.82
2022-08-12T07:42:45.061Z,61.07
2022-08-12T07:43:45.055Z,54.62
2022-08-12T07:44:45.042Z,62.68
2022-08-12T07:45:45.043Z,58.17
2022-08-12T07:46:45.064Z,56.07
2022-08-12T07:47:45.024Z,53.33
2022-08-12T07:48:45.017Z,63.49
2022-08-12T07:50:04.558Z,56.88
2022-08-12T07:50:46.000Z,59.46
2022-08-12T07:51:45.027Z,56.07
2022-08-12T07:52:44.981Z,61.23
2022-08-12T07:54:00.203Z,58.81
2022-08-12T07:54:45.985Z,60.75
2022-08-12T07:55:44.954Z,61.07
2022-08-12T07:56:44.985Z,55.59
2022-08-12T07:57:44.947Z,57.20
2022-08-12T07:58:47.154Z,59.78
2022-08-12T07:59:45.938Z,53.50
2022-08-12T08:00:44.918Z,57.69
2022-08-12T08:01:45.004Z,61.07
2022-08-12T08:02:44.910Z,59.78
2022-08-12T08:03:47.551Z,61.23
2022-08-12T08:04:44.904Z,56.72
2022-08-12T08:05:44.894Z,62.04
2022-08-12T08:06:44.907Z,58.65
2022-08-12T08:07:44.869Z,54.95
2022-08-12T08:08:44.872Z,57.20
2022-08-12T08:09:44.858Z,63.16
2022-08-12T08:10:44.861Z,61.87
2022-08-12T08:11:44.882Z,61.07
2022-08-12T08:12:44.845Z,57.20
2022-08-12T08:13:44.828Z,60.59
2022-08-12T08:14:44.822Z,53.01
2022-08-12T08:16:02.412Z,52.37
2022-08-12T08:16:46.852Z,59.30
2022-08-12T08:17:44.802Z,57.85
2022-08-12T08:18:44.809Z,59.14
2022-08-12T08:20:03.586Z,57.52
2022-08-12T08:20:45.788Z,58.17
2022-08-12T08:21:44.813Z,58.81
2022-08-12T08:22:44.864Z,60.42
2022-08-12T08:23:46.165Z,53.82
2022-08-12T08:24:44.755Z,59.62
2022-08-12T08:25:44.746Z,57.20
2022-08-12T08:26:44.757Z,53.50
2022-08-12T08:27:44.776Z,60.91
2022-08-12T08:28:44.726Z,56.56
2022-08-12T08:29:44.725Z,52.21
2022-08-12T08:30:44.737Z,59.46
2022-08-12T08:31:45.552Z,55.59
2022-08-12T08:32:45.720Z,52.21
2022-08-12T08:34:05.227Z,60.26
2022-08-12T08:34:54.228Z,61.71
2022-08-12T08:35:47.769Z,55.27
2022-08-12T08:36:44.722Z,50.76
2022-08-12T08:37:44.687Z,53.33
2022-08-12T08:38:44.648Z,54.46
2022-08-12T08:39:45.652Z,57.04
2022-08-12T08:40:44.634Z,55.43
2022-08-12T08:42:19.111Z,53.98
2022-08-12T08:42:50.806Z,61.55
2022-08-12T08:43:46.662Z,56.56
2022-08-12T08:44:44.615Z,52.53
2022-08-12T08:45:44.607Z,54.14
2022-08-12T08:46:44.708Z,51.72
2022-08-12T08:47:44.626Z,59.46
2022-08-12T08:48:44.584Z,56.56
2022-08-12T08:49:44.574Z,58.17
2022-08-12T08:50:44.574Z,51.56
2022-08-12T08:51:44.580Z,54.62
2022-08-12T08:52:44.587Z,58.97
2022-08-12T08:53:44.585Z,57.85
2022-08-12T08:54:45.540Z,61.71
2022-08-12T08:56:04.131Z,57.20
2022-08-12T08:56:46.621Z,53.33
2022-08-12T08:57:44.860Z,51.40
2022-08-12T08:58:45.507Z,56.56
2022-08-12T08:59:45.507Z,57.20
2022-08-12T09:00:49.434Z,56.88
2022-08-12T09:01:44.765Z,60.10
2022-08-12T09:02:49.196Z,54.30
2022-08-12T09:05:07.306Z,53.33
2022-08-12T09:05:13.906Z,63.81
2022-08-12T09:06:02.650Z,55.43
2022-08-12T09:06:53.819Z,54.95
2022-08-12T09:07:58.946Z,63.97
2022-08-12T09:08:46.472Z,53.98
2022-08-12T09:10:02.762Z,60.75
2022-08-12T09:10:45.830Z,59.78
2022-08-12T09:12:10.603Z,56.56
2022-08-12T09:12:45.415Z,61.39
2022-08-12T09:14:12.558Z,62.52
2022-08-12T09:16:45.412Z,51.56
2022-08-12T09:17:44.381Z,56.56
2022-08-12T09:18:44.399Z,62.52
2022-08-12T09:19:44.363Z,59.30
2022-08-12T09:20:44.365Z,60.75
2022-08-12T09:21:54.600Z,52.85
2022-08-12T09:22:49.063Z,51.24
2022-08-12T09:23:57.243Z,54.14
2022-08-12T09:24:45.327Z,59.46
2022-08-12T09:25:44.332Z,56.72
2022-08-12T09:30:10.971Z,60.26
2022-08-12T09:30:45.296Z,54.30
2022-08-12T09:32:07.856Z,62.04
2022-08-12T09:33:01.498Z,54.79
2022-08-12T09:34:25.212Z,56.07
2022-08-12T09:34:50.818Z,56.07
2022-08-12T09:35:46.218Z,53.82
2022-08-12T09:37:00.742Z,59.46
2022-08-12T09:37:58.241Z,58.81
2022-08-12T09:39:00.012Z,54.62
2022-08-12T09:40:01.828Z,56.88
2022-08-12T09:40:57.090Z,56.56
2022-08-12T09:42:08.449Z,60.42
2022-08-12T09:43:04.816Z,52.53
2022-08-12T09:43:53.339Z,57.52
2022-08-12T09:44:45.230Z,62.68
2022-08-12T09:46:06.559Z,60.26
2022-08-12T09:46:45.328Z,61.23
2022-08-12T09:47:45.177Z,61.23
2022-08-12T09:48:56.470Z,54.95
2022-08-12T09:49:45.153Z,56.56
2022-08-12T09:50:50.640Z,50.60
2022-08-12T09:51:45.157Z,63.00
2022-08-12T09:52:44.325Z,54.95
2022-08-12T09:53:44.185Z,56.07
2022-08-12T09:54:44.130Z,59.14
2022-08-12T09:56:56.914Z,60.10
2022-08-12T09:57:01.894Z,61.55
2022-08-12T09:58:46.234Z,54.62
2022-08-12T09:59:00.961Z,58.97
2022-08-12T10:00:15.014Z,66.87
2022-08-12T10:00:52.030Z,55.91
2022-08-12T10:02:43.021Z,53.66
2022-08-12T10:02:50.071Z,56.07
2022-08-12T10:04:02.968Z,55.43
2022-08-12T10:04:51.587Z,61.71
2022-08-12T10:06:19.886Z,55.59
2022-08-12T10:06:54.201Z,62.36
2022-08-12T10:07:45.022Z,61.55
2022-08-12T10:08:44.017Z,55.59
2022-08-12T10:09:58.432Z,62.52
2022-08-12T10:10:45.028Z,57.20
2022-08-12T10:12:10.148Z,58.01
2022-08-12T10:13:06.663Z,65.10
2022-08-12T10:13:45.016Z,63.81
2022-08-12T10:14:49.986Z,60.26
2022-08-12T10:16:02.773Z,61.39
2022-08-12T10:16:44.983Z,58.81
2022-08-12T10:18:05.948Z,49.95
2022-08-12T10:18:51.226Z,56.88
2022-08-12T10:19:51.618Z,56.40
2022-08-12T10:20:44.944Z,58.65
2022-08-12T10:21:43.921Z,62.36
2022-08-12T10:22:43.931Z,60.10
2022-08-12T10:23:45.933Z,52.69
2022-08-12T10:24:43.947Z,57.20
2022-08-12T10:26:34.686Z,59.78
2022-08-12T10:26:45.027Z,57.52
2022-08-12T10:28:03.636Z,59.78
2022-08-12T10:29:01.804Z,61.07
2022-08-12T10:30:03.908Z,50.11
2022-08-12T10:30:58.099Z,61.55
2022-08-12T10:32:19.458Z,62.68
2022-08-12T10:32:56.179Z,58.33
2022-08-12T10:34:04.903Z,60.42
2022-08-12T10:34:53.128Z,57.85
2022-08-12T10:35:44.814Z,63.00
2022-08-12T10:36:43.805Z,61.07
2022-08-12T10:38:37.134Z,51.88
2022-08-12T10:38:44.803Z,55.27
2022-08-12T10:40:00.801Z,54.30
2022-08-12T10:40:44.830Z,61.23
2022-08-12T10:41:58.310Z,61.87
2022-08-12T10:42:44.924Z,56.56
2022-08-12T10:43:55.922Z,61.23
2022-08-12T10:44:44.770Z,59.14
2022-08-12T10:45:43.761Z,55.75
2022-08-12T10:46:43.744Z,61.23
2022-08-12T10:48:07.795Z,55.91
2022-08-12T10:48:44.764Z,54.79
2022-08-12T10:50:02.381Z,53.33
2022-08-12T10:51:00.347Z,59.14
2022-08-12T10:52:03.180Z,60.10
2022-08-12T10:52:45.094Z,63.65
2022-08-12T10:53:46.316Z,51.56
2022-08-12T10:54:43.691Z,58.97
2022-08-12T10:55:44.696Z,53.50
2022-08-12T10:56:43.673Z,57.52
2022-08-12T10:58:13.423Z,62.04
2022-08-12T10:58:46.327Z,56.88
2022-08-12T11:00:30.697Z,60.75
2022-08-12T11:00:55.039Z,49.31
2022-08-12T11:04:17.079Z,58.97
2022-08-12T11:04:19.204Z,56.07
2022-08-12T11:04:25.226Z,53.82
2022-08-12T11:04:49.086Z,59.30
2022-08-12T11:07:05.820Z,59.78
2022-08-12T11:07:07.544Z,56.07
2022-08-12T11:08:37.583Z,54.95
2022-08-12T11:08:46.492Z,58.97
2022-08-12T11:10:00.134Z,55.59
2022-08-12T11:10:45.765Z,62.68
2022-08-12T11:12:35.370Z,61.39
2022-08-12T11:12:58.496Z,62.36
2022-08-12T11:13:48.324Z,56.72
2022-08-12T11:14:49.438Z,57.85
2022-08-12T11:16:19.419Z,62.04
2022-08-12T11:17:06.504Z,64.13
2022-08-12T11:17:53.712Z,50.27
2022-08-12T11:18:44.502Z,55.59
2022-08-12T11:19:43.534Z,56.07
2022-08-12T11:20:43.501Z,54.62
2022-08-12T11:21:57.794Z,55.27
2022-08-12T11:22:57.759Z,61.87
2022-08-12T11:23:44.469Z,52.69
2022-08-12T11:24:51.685Z,52.85
2022-08-12T11:25:57.972Z,58.17
2022-08-12T11:26:44.476Z,53.17
2022-08-12T11:27:43.706Z,55.11
2022-08-12T11:28:43.455Z,55.75
2022-08-12T11:30:02.046Z,60.26
2022-08-12T11:30:44.432Z,49.47
2022-08-12T11:32:01.970Z,62.68
2022-08-12T11:32:44.413Z,53.66
2022-08-12T11:34:05.475Z,57.36
2022-08-12T11:34:53.194Z,59.30
2022-08-12T11:35:44.395Z,58.33
2022-08-12T11:36:44.354Z,60.26
2022-08-12T11:37:55.875Z,61.23
2022-08-12T11:38:50.570Z,64.29
2022-08-12T11:40:44.322Z,65.26
2022-08-12T11:41:43.321Z,56.88
2022-08-12T11:42:46.943Z,61.71
2022-08-12T11:43:50.641Z,61.71
2022-08-12T11:44:44.514Z,58.17
2022-08-12T11:45:46.910Z,57.85
2022-08-12T11:46:43.291Z,50.27
2022-08-12T11:47:43.289Z,60.75
2022-08-12T11:48:52.387Z,49.15
2022-08-12T11:49:45.756Z,61.55
2022-08-12T11:50:44.336Z,48.02
2022-08-12T11:51:43.281Z,58.81
2022-08-12T11:52:56.848Z,61.55
2022-08-12T11:53:57.284Z,58.65
2022-08-12T11:54:51.142Z,60.26
2022-08-12T11:55:46.675Z,60.75
2022-08-12T11:56:59.042Z,58.01
2022-08-12T11:58:07.242Z,63.81
2022-08-12T12:01:59.150Z,53.33
2022-08-12T12:02:01.176Z,59.62
2022-08-12T12:02:44.254Z,54.46
2022-08-12T12:03:46.505Z,60.91
2022-08-12T12:04:43.211Z,55.75
2022-08-12T12:05:45.815Z,62.04
2022-08-12T12:06:43.161Z,54.30
2022-08-12T12:08:37.755Z,60.26
2022-08-12T12:08:49.780Z,53.66
2022-08-12T12:09:52.406Z,57.52
2022-08-12T12:10:44.138Z,56.24
2022-08-12T12:11:48.844Z,53.98
2022-08-12T12:12:49.809Z,58.01
2022-08-12T12:14:06.518Z,64.78
2022-08-12T12:14:44.129Z,61.71
2022-08-12T12:15:44.103Z,59.46
2022-08-12T12:16:48.303Z,56.88
2022-08-12T12:17:44.087Z,58.33
2022-08-12T12:18:43.080Z,54.14
2022-08-12T12:19:46.195Z,58.33
2022-08-12T12:20:43.068Z,64.29
2022-08-12T12:21:47.258Z,61.39
2022-08-12T12:22:44.117Z,63.00
2022-08-12T12:23:47.057Z,64.29
2022-08-12T12:24:43.074Z,55.75
2022-08-12T12:25:59.574Z,62.68
2022-08-12T12:26:44.023Z,54.30
2022-08-12T12:28:04.477Z,60.75
2022-08-12T12:28:54.422Z,60.91
2022-08-12T12:30:13.718Z,62.04
2022-08-12T12:30:54.689Z,59.62
2022-08-12T12:32:09.411Z,55.11
2022-08-12T12:32:53.305Z,63.00
2022-08-12T12:33:57.515Z,59.62
2022-08-12T12:35:13.467Z,58.65
2022-08-12T12:36:18.385Z,61.71
2022-08-12T12:36:43.959Z,59.14
2022-08-12T12:38:03.443Z,60.59
2022-08-12T12:38:44.936Z,54.14
2022-08-12T12:39:54.997Z,58.01
2022-08-12T12:40:44.175Z,59.14
2022-08-12T12:42:44.373Z,55.75
2022-08-12T12:42:57.941Z,62.36
2022-08-12T12:44:04.127Z,58.01
2022-08-12T12:44:53.542Z,65.10
2022-08-12T12:45:44.293Z,60.91
2022-08-12T12:46:44.644Z,60.59
2022-08-12T12:47:42.904Z,62.84
2022-08-12T12:48:44.762Z,61.39
2022-08-12T12:49:43.896Z,57.52
2022-08-12T12:50:45.726Z,58.33
2022-08-12T12:51:56.383Z,56.24
2022-08-12T12:52:43.849Z,60.26
2022-08-12T12:54:08.747Z,57.69
2022-08-12T12:54:43.864Z,57.69
2022-08-12T12:55:42.822Z,61.23
2022-08-12T12:56:43.164Z,58.97
2022-08-12T12:58:00.612Z,62.36
2022-08-12T12:58:43.937Z,62.20
2022-08-12T12:59:56.823Z,59.14
2022-08-12T13:00:51.097Z,59.14